createdAt,value
2023-04-25T00:02:24.105Z,8.80
2023-04-25T00:05:26.559Z,8.40
2023-04-25T00:08:30.361Z,9.73
2023-04-25T00:11:37.484Z,7.85
2023-04-25T00:14:39.847Z,9.33
2023-04-25T00:17:43.428Z,12.63
2023-04-25T00:20:47.617Z,7.80
2023-04-25T00:23:50.140Z,8.55
2023-04-25T00:26:51.975Z,8.00
2023-04-25T00:29:59.102Z,8.07
2023-04-25T00:33:05.113Z,8.35
2023-04-25T00:36:08.129Z,10.13
2023-04-25T00:39:12.751Z,8.10
2023-04-25T00:42:15.040Z,8.10
2023-04-25T00:45:18.314Z,7.73
2023-04-25T00:48:23.974Z,7.93
2023-04-25T00:51:28.237Z,8.55
2023-04-25T00:54:31.751Z,9.02
2023-04-25T00:57:34.170Z,8.15
2023-04-25T01:00:37.818Z,8.77
2023-04-25T01:03:44.221Z,7.47
2023-04-25T01:06:48.007Z,8.40
2023-04-25T01:09:52.944Z,8.95
2023-04-25T01:12:57.249Z,8.65
2023-04-25T01:16:00.616Z,9.50
2023-04-25T01:19:02.886Z,8.45
2023-04-25T01:22:05.928Z,8.63
2023-04-25T01:25:10.217Z,8.38
2023-04-25T01:28:12.930Z,7.65
2023-04-25T01:31:16.749Z,8.85
2023-04-25T01:34:22.662Z,8.10
2023-04-25T01:37:25.024Z,8.80
2023-04-25T01:40:28.474Z,9.05
2023-04-25T01:43:32.469Z,8.90
2023-04-25T01:46:37.789Z,8.13
2023-04-25T01:49:40.999Z,9.80
2023-04-25T01:52:43.221Z,8.10
2023-04-25T01:55:46.190Z,9.65
2023-04-25T01:58:52.267Z,7.57
2023-04-25T02:01:57.180Z,7.38
2023-04-25T02:05:04.438Z,8.85
2023-04-25T02:08:10.807Z,8.53
2023-04-25T02:11:12.698Z,9.38
2023-04-25T02:14:21.215Z,7.93
2023-04-25T02:17:34.544Z,8.00
2023-04-25T02:20:38.226Z,8.02
2023-04-25T02:23:40.735Z,8.40
2023-04-25T02:26:42.321Z,7.80
2023-04-25T02:29:47.125Z,8.52
2023-04-25T02:32:49.204Z,11.23
2023-04-25T02:35:51.406Z,8.32
2023-04-25T02:38:54.888Z,9.57
2023-04-25T02:41:57.081Z,8.38
2023-04-25T02:44:59.657Z,8.27
2023-04-25T02:48:03.816Z,8.00
2023-04-25T02:51:09.716Z,8.57
2023-04-25T02:54:11.854Z,8.50
2023-04-25T02:57:18.133Z,9.63
2023-04-25T03:00:20.415Z,8.57
2023-04-25T03:03:23.020Z,8.48
2023-04-25T03:06:26.082Z,10.73
2023-04-25T03:09:28.762Z,8.83
2023-04-25T03:12:31.452Z,8.45
2023-04-25T03:15:33.546Z,8.90
2023-04-25T03:18:36.715Z,8.63
2023-04-25T03:21:39.000Z,7.38
2023-04-25T03:24:41.283Z,8.82
2023-04-25T03:27:43.266Z,10.00
2023-04-25T03:30:45.795Z,8.27
2023-04-25T03:33:48.188Z,11.57
2023-04-25T03:36:52.654Z,9.23
2023-04-25T03:39:54.677Z,10.00
2023-04-25T03:42:58.867Z,8.07
2023-04-25T03:46:01.101Z,8.30
2023-04-25T03:49:04.227Z,8.63
2023-04-25T03:52:26.183Z,8.60
2023-04-25T03:55:29.184Z,10.27
2023-04-25T03:58:31.772Z,9.07
2023-04-25T04:01:35.060Z,10.25
2023-04-25T04:04:37.762Z,8.18
2023-04-25T04:07:41.211Z,7.72
2023-04-25T04:10:46.670Z,8.70
2023-04-25T04:13:51.089Z,8.75
2023-04-25T04:16:53.832Z,8.25
2023-04-25T04:19:59.686Z,8.23
2023-04-25T04:23:04.614Z,7.82
2023-04-25T04:26:08.205Z,11.00
2023-04-25T04:29:25.432Z,8.05
2023-04-25T04:32:37.529Z,10.18
2023-04-25T04:35:40.034Z,8.43
2023-04-25T04:38:43.384Z,8.45
2023-04-25T04:41:54.534Z,7.90
2023-04-25T04:45:30.202Z,10.27
2023-04-25T04:48:57.487Z,9.07
2023-04-25T04:52:28.864Z,8.73
2023-04-25T04:55:48.833Z,8.50
2023-04-25T04:59:08.148Z,6.55
2023-04-25T05:02:18.323Z,8.70
2023-04-25T05:05:36.748Z,6.43
2023-04-25T05:09:06.515Z,7.90
2023-04-25T05:12:23.995Z,7.32
2023-04-25T05:15:32.618Z,8.80
2023-04-25T05:18:49.832Z,6.45
2023-04-25T05:22:10.844Z,8.35
2023-04-25T05:25:33.901Z,6.13
2023-04-25T05:28:48.955Z,5.88
2023-04-25T05:32:10.948Z,7.80
2023-04-25T05:35:14.460Z,6.40
2023-04-25T05:38:21.519Z,7.22
2023-04-25T05:41:53.711Z,8.32
2023-04-25T05:45:14.170Z,8.55
2023-04-25T05:48:34.656Z,7.10
2023-04-25T05:52:16.255Z,7.00
2023-04-25T05:55:32.500Z,7.88
2023-04-25T05:58:37.301Z,9.37
2023-04-25T06:01:42.026Z,7.15
2023-04-25T06:04:44.518Z,7.30
2023-04-25T06:07:46.761Z,8.73
2023-04-25T06:10:49.701Z,6.63
2023-04-25T06:13:54.582Z,10.52
2023-04-25T06:16:58.633Z,7.60
2023-04-25T06:20:04.639Z,7.67
2023-04-25T06:23:10.023Z,9.57
2023-04-25T06:26:20.614Z,9.05
2023-04-25T06:29:26.198Z,7.37
2023-04-25T06:32:29.669Z,9.68
2023-04-25T06:35:34.288Z,9.25
2023-04-25T06:38:39.411Z,7.22
2023-04-25T06:41:43.515Z,6.88
2023-04-25T06:45:05.471Z,6.78
2023-04-25T06:48:09.669Z,6.85
2023-04-25T06:51:11.899Z,8.40
2023-04-25T06:54:15.793Z,6.75
2023-04-25T06:57:27.204Z,7.85
2023-04-25T07:00:32.049Z,6.97
2023-04-25T07:03:35.307Z,6.65
2023-04-25T07:06:44.020Z,5.82
2023-04-25T07:09:47.709Z,6.68
2023-04-25T07:12:53.639Z,7.57
2023-04-25T07:15:57.840Z,7.22
2023-04-25T07:19:03.543Z,8.00
2023-04-25T07:22:07.901Z,5.77
2023-04-25T07:25:12.418Z,7.95
2023-04-25T07:28:14.784Z,6.30
2023-04-25T07:31:18.484Z,6.23
2023-04-25T07:34:22.612Z,7.03
2023-04-25T07:37:26.962Z,6.15
2023-04-25T07:40:44.293Z,6.35
2023-04-25T07:43:47.357Z,5.43
2023-04-25T07:46:52.733Z,5.70
2023-04-25T07:49:55.291Z,5.72
2023-04-25T07:52:58.894Z,5.77
2023-04-25T07:56:07.949Z,7.40
2023-04-25T07:59:14.518Z,7.85
2023-04-25T08:02:17.918Z,5.30
2023-04-25T08:05:22.740Z,5.80
2023-04-25T08:08:33.893Z,6.70
2023-04-25T08:11:35.958Z,6.38
2023-04-25T08:14:40.758Z,6.15
2023-04-25T08:17:42.512Z,7.22
2023-04-25T08:20:46.095Z,5.63
2023-04-25T08:23:50.405Z,6.87
2023-04-25T08:27:04.448Z,7.68
2023-04-25T08:30:10.316Z,5.88
2023-04-25T08:33:13.527Z,6.07
2023-04-25T08:36:46.948Z,6.03
2023-04-25T08:40:15.636Z,6.93
2023-04-25T08:43:36.107Z,6.07
2023-04-25T08:46:42.430Z,6.32
2023-04-25T08:50:01.164Z,8.23
2023-04-25T08:53:07.945Z,6.72
2023-04-25T08:56:14.212Z,9.07
2023-04-25T08:59:18.496Z,6.10
2023-04-25T09:02:22.146Z,6.32
2023-04-25T09:05:26.949Z,6.17
2023-04-25T09:08:31.241Z,5.88
2023-04-25T09:11:34.523Z,6.03
2023-04-25T09:14:39.257Z,5.72
2023-04-25T09:18:00.177Z,5.90
2023-04-25T09:21:14.273Z,5.80
2023-04-25T09:24:44.994Z,6.32
2023-04-25T09:27:55.389Z,6.53
2023-04-25T09:31:05.058Z,5.72
2023-04-25T09:34:22.635Z,6.97
2023-04-25T09:37:31.525Z,7.37
2023-04-25T09:41:02.990Z,6.97
2023-04-25T09:44:16.244Z,6.18
2023-04-25T09:47:22.527Z,7.15
2023-04-25T09:50:26.119Z,6.00
2023-04-25T09:53:47.812Z,6.75
2023-04-25T09:57:17.861Z,7.35
2023-04-25T10:00:22.197Z,6.57
2023-04-25T10:03:27.358Z,6.88
2023-04-25T10:06:51.456Z,6.78
2023-04-25T10:10:00.961Z,6.82
2023-04-25T10:13:06.705Z,5.73
2023-04-25T10:16:13.243Z,5.15
2023-04-25T10:19:17.766Z,5.10
2023-04-25T10:22:30.837Z,5.80
2023-04-25T10:25:36.919Z,5.60
2023-04-25T10:29:10.841Z,4.72
2023-04-25T10:32:12.593Z,4.80
2023-04-25T10:35:20.492Z,4.93
2023-04-25T10:38:22.998Z,4.90
2023-04-25T10:41:25.082Z,4.68
2023-04-25T10:44:31.517Z,4.00
2023-04-25T10:47:38.328Z,4.40
2023-04-25T10:50:42.126Z,6.15
2023-04-25T10:54:07.803Z,4.85
2023-04-25T10:57:53.155Z,5.20
2023-04-25T11:00:57.674Z,7.40
2023-04-25T11:04:00.702Z,5.85
2023-04-25T11:07:47.955Z,5.10
2023-04-25T11:10:52.635Z,4.97
2023-04-25T11:13:55.391Z,6.55
2023-04-25T11:17:00.676Z,6.63
2023-04-25T11:20:09.046Z,5.15
2023-04-25T11:23:11.591Z,5.50
2023-04-25T11:26:16.015Z,5.53
2023-04-25T11:29:18.184Z,5.72
2023-04-25T11:32:23.728Z,6.25
2023-04-25T11:35:27.036Z,6.28
2023-04-25T11:38:29.500Z,4.57
2023-04-25T11:41:32.026Z,4.95
2023-04-25T11:44:34.114Z,5.70
2023-04-25T11:47:37.317Z,6.60
2023-04-25T11:50:40.866Z,5.93
2023-04-25T11:53:43.958Z,5.10
2023-04-25T11:56:47.098Z,6.90
2023-04-25T11:59:52.688Z,5.38
2023-04-25T12:02:56.363Z,6.32
2023-04-25T12:06:04.806Z,5.93
2023-04-25T12:09:17.382Z,4.63
2023-04-25T12:12:19.546Z,5.82
2023-04-25T12:15:26.233Z,4.90
2023-04-25T12:18:29.066Z,6.30
2023-04-25T12:21:31.447Z,7.53
2023-04-25T12:24:37.761Z,5.80
2023-04-25T12:27:45.002Z,7.75
2023-04-25T12:30:59.284Z,5.88
2023-04-25T12:34:00.985Z,7.50
2023-04-25T12:37:03.072Z,7.18
2023-04-25T12:40:05.982Z,6.53
2023-04-25T12:43:08.149Z,8.02
2023-04-25T12:46:10.338Z,6.43
2023-04-25T12:52:19.373Z,6.05
2023-04-25T12:55:21.064Z,6.82
2023-04-25T12:58:24.748Z,4.88
2023-04-25T13:01:28.865Z,4.22
2023-04-25T13:04:31.129Z,4.10
2023-04-25T13:07:35.820Z,3.78
2023-04-25T13:10:40.375Z,3.53
2023-04-25T13:13:43.273Z,4.07
2023-04-25T13:16:45.412Z,3.38
2023-04-25T13:19:47.719Z,3.83
2023-04-25T13:22:49.781Z,3.65
2023-04-25T13:25:51.957Z,4.25
2023-04-25T13:28:53.819Z,4.00
2023-04-25T13:31:55.972Z,5.05
2023-04-25T13:34:58.416Z,4.60
2023-04-25T13:38:00.951Z,5.70
2023-04-25T13:41:03.027Z,5.90
2023-04-25T13:44:05.653Z,5.88
2023-04-25T13:47:09.041Z,5.97
2023-04-25T13:50:11.786Z,5.50
2023-04-25T13:53:13.993Z,6.70
2023-04-25T13:56:16.969Z,6.07
2023-04-25T13:59:18.540Z,5.75
2023-04-25T14:02:20.504Z,5.68
2023-04-25T14:05:24.024Z,6.47
2023-04-25T14:08:26.785Z,6.22
2023-04-25T14:11:28.672Z,5.70
2023-04-25T14:14:31.281Z,6.28
2023-04-25T14:17:34.554Z,6.38
2023-04-25T14:20:36.708Z,5.80
2023-04-25T14:23:40.820Z,7.38
2023-04-25T14:26:43.617Z,7.30
2023-04-25T14:29:45.715Z,6.22
2023-04-25T14:32:52.184Z,6.32
2023-04-25T14:35:54.537Z,6.35
2023-04-25T14:38:56.988Z,7.00
2023-04-25T14:42:00.222Z,9.73
2023-04-25T14:45:01.843Z,7.60
2023-04-25T14:48:03.889Z,7.75
2023-04-25T14:51:05.882Z,7.07
2023-04-25T14:54:07.842Z,8.65
2023-04-25T14:57:11.437Z,15.00
2023-04-25T15:00:17.401Z,9.30
2023-04-25T15:03:19.966Z,8.77
2023-04-25T15:06:22.351Z,9.30
2023-04-25T15:09:25.147Z,6.78
2023-04-25T15:12:29.257Z,8.27
2023-04-25T15:15:31.453Z,8.45
2023-04-25T15:18:33.135Z,8.60
2023-04-25T15:21:35.385Z,7.33
2023-04-25T15:24:38.396Z,7.22
2023-04-25T15:27:45.080Z,7.00
2023-04-25T15:30:47.238Z,8.25
2023-04-25T15:33:48.907Z,8.80
2023-04-25T15:36:51.190Z,7.93
2023-04-25T15:40:05.804Z,8.13
2023-04-25T15:43:08.373Z,8.37
2023-04-25T15:46:10.444Z,9.57
2023-04-25T15:49:12.136Z,7.93
2023-04-25T15:52:13.763Z,7.50
2023-04-25T15:55:17.394Z,9.13
2023-04-25T15:58:18.954Z,10.07
2023-04-25T16:01:24.422Z,9.63
2023-04-25T16:04:27.625Z,10.48
2023-04-25T16:07:30.424Z,10.80
2023-04-25T16:10:32.875Z,8.15
2023-04-25T16:13:35.328Z,8.30
2023-04-25T16:16:37.520Z,8.45
2023-04-25T16:19:40.228Z,8.32
2023-04-25T16:22:43.472Z,7.63
2023-04-25T16:25:48.708Z,9.15
2023-04-25T16:28:50.742Z,11.32
2023-04-25T16:31:53.311Z,8.20
2023-04-25T16:34:56.983Z,8.30
2023-04-25T16:38:01.176Z,7.30
2023-04-25T16:41:03.366Z,8.63
2023-04-25T16:44:07.205Z,5.80
2023-04-25T16:47:09.081Z,6.40
2023-04-25T16:50:11.606Z,8.23
2023-04-25T16:53:14.727Z,6.87
2023-04-25T16:56:17.166Z,6.35
2023-04-25T16:59:19.761Z,6.80
2023-04-25T17:02:21.542Z,6.55
2023-04-25T17:05:25.967Z,8.07
2023-04-25T17:08:31.284Z,8.07
2023-04-25T17:11:33.574Z,9.98
2023-04-25T17:14:37.491Z,9.70
2023-04-25T17:17:39.860Z,10.60
2023-04-25T17:20:48.206Z,11.05
2023-04-25T17:23:49.844Z,10.80
2023-04-25T17:26:51.520Z,9.93
2023-04-25T17:29:54.112Z,10.35
2023-04-25T17:32:56.396Z,9.48
2023-04-25T17:35:58.855Z,9.25
2023-04-25T17:39:00.389Z,10.60
2023-04-25T17:42:04.196Z,7.53
2023-04-25T17:45:07.854Z,8.83
2023-04-25T17:48:09.961Z,8.20
2023-04-25T17:51:12.131Z,8.90
2023-04-25T17:54:14.666Z,14.40
2023-04-25T17:57:17.195Z,9.25
2023-04-25T18:00:19.567Z,9.23
2023-04-25T18:03:22.457Z,9.38
2023-04-25T18:06:24.112Z,7.95
2023-04-25T18:09:26.097Z,8.52
2023-04-25T18:12:28.203Z,7.57
2023-04-25T18:15:30.626Z,9.43
2023-04-25T18:18:34.804Z,9.07
2023-04-25T18:21:36.431Z,12.30
2023-04-25T18:24:41.051Z,19.60
2023-04-25T18:27:43.477Z,13.45
2023-04-25T18:30:47.538Z,10.73
2023-04-25T18:33:49.479Z,14.75
2023-04-25T18:36:52.578Z,11.07
2023-04-25T18:39:55.000Z,14.27
2023-04-25T18:42:56.752Z,10.55
2023-04-25T18:45:58.863Z,18.10
2023-04-25T18:49:01.175Z,14.00
2023-04-25T18:52:03.604Z,10.85
2023-04-25T18:55:05.650Z,10.03
2023-04-25T18:58:10.379Z,9.60
2023-04-25T19:01:12.856Z,11.45
2023-04-25T19:04:16.230Z,10.82
2023-04-25T19:07:20.970Z,8.73
2023-04-25T19:10:22.738Z,8.50
2023-04-25T19:13:25.150Z,11.70
2023-04-25T19:16:27.644Z,8.93
2023-04-25T19:19:29.290Z,9.25
2023-04-25T19:22:31.124Z,8.23
2023-04-25T19:25:34.335Z,9.43
2023-04-25T19:28:37.685Z,8.80
2023-04-25T19:31:40.226Z,11.40
2023-04-25T19:34:42.453Z,12.73
2023-04-25T19:37:47.003Z,11.88
2023-04-25T19:40:49.374Z,12.38
2023-04-25T19:43:51.239Z,13.60
2023-04-25T19:46:53.142Z,12.40
2023-04-25T19:49:55.146Z,13.93
2023-04-25T19:52:57.721Z,12.02
2023-04-25T19:56:00.312Z,13.70
2023-04-25T19:59:01.942Z,13.10
2023-04-25T20:02:07.164Z,12.20
2023-04-25T20:05:09.617Z,11.95
2023-04-25T20:08:11.268Z,12.55
2023-04-25T20:11:13.568Z,12.50
2023-04-25T20:14:15.296Z,13.45
2023-04-25T20:17:16.964Z,12.93
2023-04-25T20:20:18.727Z,13.90
2023-04-25T20:23:22.249Z,17.02
2023-04-25T20:26:24.068Z,14.20
2023-04-25T20:29:26.550Z,14.00
2023-04-25T20:32:28.295Z,13.18
2023-04-25T20:35:30.217Z,12.93
2023-04-25T20:38:31.936Z,13.40
2023-04-25T20:41:34.027Z,10.52
2023-04-25T20:44:40.579Z,12.20
2023-04-25T20:47:43.072Z,14.63
2023-04-25T20:50:46.733Z,12.18
2023-04-25T20:53:48.872Z,10.07
2023-04-25T20:56:52.468Z,10.70
2023-04-25T20:59:54.502Z,11.35
2023-04-25T21:02:57.926Z,11.93
2023-04-25T21:06:04.377Z,11.55
2023-04-25T21:09:08.963Z,11.10
2023-04-25T21:12:11.186Z,10.43
2023-04-25T21:15:14.483Z,11.63
2023-04-25T21:18:18.070Z,10.20
2023-04-25T21:21:20.280Z,9.63
2023-04-25T21:24:22.013Z,9.48
2023-04-25T21:27:24.488Z,9.07
2023-04-25T21:30:27.683Z,10.45
2023-04-25T21:33:29.304Z,13.18
2023-04-25T21:36:31.310Z,9.75
2023-04-25T21:39:32.891Z,9.50
2023-04-25T21:42:35.363Z,10.93
2023-04-25T21:45:47.085Z,10.20
2023-04-25T21:48:59.788Z,11.10
2023-04-25T21:52:01.929Z,9.75
2023-04-25T21:55:03.693Z,11.18
2023-04-25T21:58:05.398Z,11.93
2023-04-25T22:01:07.771Z,12.30
2023-04-25T22:04:09.623Z,14.85
2023-04-25T22:07:12.328Z,11.48
2023-04-25T22:10:14.037Z,13.65
2023-04-25T22:13:16.148Z,10.13
2023-04-25T22:16:17.948Z,11.40
2023-04-25T22:19:20.816Z,10.57
2023-04-25T22:22:22.354Z,10.95
2023-04-25T22:25:25.217Z,11.63
2023-04-25T22:28:28.049Z,12.07
2023-04-25T22:31:30.447Z,12.75
2023-04-25T22:34:32.069Z,11.68
2023-04-25T22:37:35.914Z,11.90
2023-04-25T22:40:37.815Z,13.60
2023-04-25T22:43:43.082Z,12.40
2023-04-25T22:46:46.089Z,11.70
2023-04-25T22:49:48.314Z,11.80
2023-04-25T22:52:49.954Z,12.23
2023-04-25T22:55:57.523Z,14.18
2023-04-25T22:59:00.175Z,11.97
2023-04-25T23:02:02.632Z,11.43
2023-04-25T23:05:07.038Z,14.77
2023-04-25T23:08:09.856Z,12.88
2023-04-25T23:11:12.845Z,12.48
2023-04-25T23:14:14.920Z,14.80
2023-04-25T23:17:17.069Z,15.18
2023-04-25T23:20:23.686Z,14.37
2023-04-25T23:23:26.144Z,14.52
2023-04-25T23:26:28.905Z,13.30
2023-04-25T23:29:34.868Z,13.13
2023-04-25T23:32:38.003Z,14.27
2023-04-25T23:35:41.790Z,13.02
2023-04-25T23:38:43.843Z,12.82
2023-04-25T23:41:47.062Z,15.80
2023-04-25T23:44:48.921Z,14.05
2023-04-25T23:47:52.704Z,15.27
2023-04-25T23:50:56.158Z,15.77
2023-04-25T23:53:58.920Z,14.45
2023-04-25T23:57:01.123Z,16.05
